KLRO/LRO METAR and TAF weather

Enter ICAO airport designator
Station Type Date Time Source
KLRO METAR 2022/08/16 19:15 UTC NOAA

KLRO 161915Z AUTO 00000KT 8SM FEW039 FEW046 31/25 A2985 RMK AO2


Station Type Date Time Source
KLRO Decoded METAR 2022/08/16 19:15 UTC NOAA

Station name not available
Aug 16, 2022 - 03:15 PM EDT / 2022.08.16 1915 UTC
Wind: Calm:0
Visibility: 8 mile(s):0
Sky conditions: mostly clear
Temperature: 87 F (31 C)
Heat index: 97.5 F (36.4 C):1
Dew Point: 77 F (25 C)
Relative Humidity: 70%
Pressure (altimeter): 29.85 in. Hg (1010 hPa)
ob: KLRO 161915Z AUTO 00000KT 8SM FEW039 FEW046 31/25 A2985 RMK AO2
cycle: 19

Station Type Date Time Source
KLRO TAF UTC NOAA

Error!

Example: see airport list